Time;durP1;ratioP1;P1;durP2;ratioP2;P2;SDS_P1;SDS_P2;PMS_P1;PMS_P2;Temp;Humidity;BMP_temperature;BMP_pressure;BME280_temperature;BME280_humidity;BME280_pressure;Samples;Min_cycle;Max_cycle;Signal;HPM_P1;HPM_P2
2022/12/31 00:00:39;;;;;;;8.90;8.50;;;;;;;2.60;100.00;101618.00;5010902;28;20028;-69
2022/12/31 00:03:06;;;;;;;9.38;8.93;;;;;;;2.87;100.00;101622.47;5012666;28;20592;-69
2022/12/31 00:05:32;;;;;;;8.90;8.50;;;;;;;2.88;100.00;101624.97;5011183;28;20137;-69
2022/12/31 00:07:58;;;;;;;9.00;8.60;;;;;;;2.71;100.00;101633.03;5012391;28;20079;-70
2022/12/31 00:10:24;;;;;;;9.23;8.82;;;;;;;2.83;100.00;101637.53;5012212;28;20030;-69
2022/12/31 00:12:50;;;;;;;8.90;8.50;;;;;;;2.96;100.00;101648.06;5013119;28;20080;-70
2022/12/31 00:15:16;;;;;;;8.88;8.48;;;;;;;3.07;100.00;101644.75;5010955;28;20021;-71
2022/12/31 00:17:41;;;;;;;8.93;8.52;;;;;;;3.07;100.00;101636.88;5012142;28;20018;-70
2022/12/31 00:20:07;;;;;;;8.80;8.40;;;;;;;2.92;100.00;101636.09;5014205;28;20033;-69
2022/12/31 00:22:34;;;;;;;8.70;8.30;;;;;;;2.72;100.00;101643.44;5011933;28;20389;-68
2022/12/31 00:25:00;;;;;;;8.98;8.57;;;;;;;2.54;100.00;101646.38;5012860;28;20052;-69
2022/12/31 00:27:25;;;;;;;9.90;9.40;;;;;;;2.90;100.00;101651.91;5012912;28;20465;-69
2022/12/31 00:29:51;;;;;;;9.00;8.60;;;;;;;2.93;100.00;101656.09;5012347;28;20018;-67
2022/12/31 00:32:16;;;;;;;8.95;8.55;;;;;;;2.85;100.00;101653.13;5044257;28;20033;-68
2022/12/31 00:34:41;;;;;;;9.20;8.80;;;;;;;2.78;100.00;101653.53;5010757;28;20583;-69
2022/12/31 00:37:07;;;;;;;9.05;8.65;;;;;;;2.70;100.00;101654.94;5013328;28;20049;-70
2022/12/31 00:39:32;;;;;;;9.32;8.93;;;;;;;2.80;100.00;101648.22;5011865;28;20018;-70
2022/12/31 00:41:58;;;;;;;9.00;8.60;;;;;;;2.81;100.00;101646.44;5012305;28;20076;-69
2022/12/31 00:44:23;;;;;;;8.82;8.43;;;;;;;2.71;100.00;101644.38;5012417;28;20080;-70
2022/12/31 00:46:49;;;;;;;8.90;8.50;;;;;;;2.78;100.00;101639.59;5012336;28;20033;-69
2022/12/31 00:49:15;;;;;;;9.45;8.95;;;;;;;2.44;100.00;101641.72;5012042;28;20034;-70
2022/12/31 00:51:40;;;;;;;9.30;8.82;;;;;;;2.33;100.00;101646.75;5008753;28;20029;-69
2022/12/31 00:54:07;;;;;;;9.65;9.15;;;;;;;2.21;100.00;101644.91;5011208;28;20026;-69
2022/12/31 00:56:32;;;;;;;9.30;8.90;;;;;;;2.07;100.00;101645.75;5009888;28;20048;-69
2022/12/31 00:58:59;;;;;;;8.90;8.50;;;;;;;1.89;100.00;101657.28;5012457;28;20471;-68
2022/12/31 01:01:33;;;;;;;9.65;9.15;;;;;;;1.85;100.00;101661.88;5012062;28;20029;-69
2022/12/31 01:04:11;;;;;;;9.55;9.07;;;;;;;1.88;100.00;101661.69;5009484;28;20396;-68
2022/12/31 01:06:37;;;;;;;9.15;8.75;;;;;;;1.87;100.00;101662.63;5011082;28;20034;-68
2022/12/31 01:09:04;;;;;;;9.27;8.88;;;;;;;1.68;100.00;101648.94;5012245;28;20025;-69
2022/12/31 01:11:30;;;;;;;9.38;8.95;;;;;;;1.74;100.00;101668.66;5012755;28;20026;-69
2022/12/31 01:14:01;;;;;;;9.55;9.07;;;;;;;1.44;100.00;101655.59;5011524;28;20018;-69
2022/12/31 01:16:44;;;;;;;9.70;9.20;;;;;;;1.31;100.00;101645.81;5011772;28;20493;-69
2022/12/31 01:19:16;;;;;;;9.97;9.47;;;;;;;1.28;100.00;101653.84;5011550;28;20026;-69
2022/12/31 01:21:43;;;;;;;9.70;9.20;;;;;;;1.35;100.00;101647.34;5026600;28;20029;-69
2022/12/31 01:24:10;;;;;;;10.38;9.80;;;;;;;1.46;100.00;101649.31;5008317;28;20025;-69
2022/12/31 01:26:36;;;;;;;9.40;9.00;;;;;;;1.36;100.00;101654.25;5012201;28;20440;-68
2022/12/31 01:29:03;;;;;;;9.27;8.88;;;;;;;1.29;100.00;101644.25;5014672;28;20068;-69
2022/12/31 01:31:29;;;;;;;10.27;9.77;;;;;;;1.36;100.00;101650.81;5010480;28;20114;-68
2022/12/31 01:33:54;;;;;;;9.50;9.02;;;;;;;1.23;100.00;101648.03;5011240;28;20097;-69
2022/12/31 01:36:26;;;;;;;9.00;8.60;;;;;;;1.24;100.00;101660.16;5012608;28;20018;-70
2022/12/31 01:38:53;;;;;;;9.55;9.05;;;;;;;1.16;100.00;101651.94;5009667;28;20025;-68
2022/12/31 01:41:22;;;;;;;9.88;9.38;;;;;;;1.32;100.00;101654.50;5012167;28;20029;-68
2022/12/31 01:43:57;;;;;;;9.23;8.82;;;;;;;1.35;100.00;101656.97;5007595;28;20034;-69
2022/12/31 01:46:43;;;;;;;9.10;8.70;;;;;;;1.34;100.00;101656.13;5012148;28;20393;-68
2022/12/31 01:49:23;;;;;;;9.00;8.60;;;;;;;1.42;100.00;101663.53;5010916;28;20026;-68
2022/12/31 01:51:57;;;;;;;9.13;8.73;;;;;;;1.30;100.00;101659.00;5006289;28;20076;-68
2022/12/31 01:54:26;;;;;;;9.25;8.80;;;;;;;1.63;100.00;101669.28;5010417;28;20045;-69
2022/12/31 01:56:54;;;;;;;9.38;8.88;;;;;;;1.63;100.00;101648.38;5010467;28;20026;-67
2022/12/31 01:59:22;;;;;;;8.95;8.55;;;;;;;1.64;100.00;101658.75;5010145;28;20018;-68
2022/12/31 02:01:54;;;;;;;8.90;8.50;;;;;;;1.44;100.00;101653.81;5012430;28;20513;-69
2022/12/31 02:04:23;;;;;;;8.77;8.38;;;;;;;1.58;100.00;101648.63;5011977;28;20026;-69
2022/12/31 02:06:58;;;;;;;9.05;8.65;;;;;;;1.44;100.00;101650.38;5011476;28;20044;-67
2022/12/31 02:09:24;;;;;;;9.00;8.60;;;;;;;1.38;100.00;101652.38;5011284;28;20057;-69
2022/12/31 02:11:50;;;;;;;9.10;8.70;;;;;;;1.46;100.00;101657.19;5009941;28;20065;-69
2022/12/31 02:14:19;;;;;;;8.70;8.30;;;;;;;1.34;100.00;101655.28;5010877;28;20105;-69
2022/12/31 02:17:00;;;;;;;9.75;9.25;;;;;;;1.08;100.00;101656.75;5011479;28;20030;-69
2022/12/31 02:19:34;;;;;;;9.05;8.65;;;;;;;1.19;100.00;101662.22;5009787;28;20508;-69
2022/12/31 02:22:08;;;;;;;;;;;;;;;1.26;100.00;101660.94;5011927;28;20030;-68
2022/12/31 02:24:48;;;;;;;8.43;8.03;;;;;;;1.26;100.00;101662.72;5009645;28;19921;-70
2022/12/31 02:27:27;;;;;;;9.05;8.65;;;;;;;1.47;100.00;101661.50;5011399;28;20041;-68
2022/12/31 02:29:59;;;;;;;9.80;9.30;;;;;;;1.52;100.00;101659.44;5009662;28;20022;-70
2022/12/31 02:32:54;;;;;;;8.80;8.40;;;;;;;1.38;100.00;101662.84;5011246;28;20061;-70
2022/12/31 02:35:30;;;;;;;9.40;8.90;;;;;;;1.54;100.00;101672.41;5010678;28;20040;-70
2022/12/31 02:38:03;;;;;;;8.60;8.20;;;;;;;1.51;100.00;101664.75;5011092;28;20014;-69
2022/12/31 02:40:32;;;;;;;8.82;8.43;;;;;;;1.45;100.00;101665.13;5007298;28;20128;-70
2022/12/31 02:42:57;;;;;;;8.95;8.55;;;;;;;1.38;100.00;101662.00;5011510;28;20045;-70
2022/12/31 02:45:30;;;;;;;8.88;8.48;;;;;;;1.36;100.00;101661.25;5013084;28;20485;-70
2022/12/31 02:47:58;;;;;;;9.20;8.80;;;;;;;1.37;100.00;101669.00;5013932;28;20042;-70
2022/12/31 02:50:32;;;;;;;9.25;8.80;;;;;;;1.18;100.00;101670.16;5012530;28;20030;-69
2022/12/31 02:53:22;;;;;;;9.13;8.73;;;;;;;1.11;100.00;101656.59;5015126;28;20520;-69
2022/12/31 02:55:50;;;;;;;9.45;8.95;;;;;;;1.37;100.00;101671.63;5012494;28;20121;-69
2022/12/31 03:02:12;;;;;;;9.65;9.15;;;;;;;1.18;100.00;101676.22;5014330;28;20108;-69
2022/12/31 03:04:30;;;;;;;9.93;9.43;;;;;;;0.91;100.00;101675.13;5013769;28;20116;-69
2022/12/31 03:06:47;;;;;;;9.82;9.32;;;;;;;0.80;100.00;101679.16;5011011;28;20026;-68
2022/12/31 03:09:13;;;;;;;9.45;8.95;;;;;;;0.84;100.00;101679.84;5010055;28;20028;-68
2022/12/31 03:14:23;;;;;;;9.00;8.60;;;;;;;0.96;100.00;101680.97;5014026;28;20040;-68
2022/12/31 03:16:48;;;;;;;9.20;8.80;;;;;;;0.94;100.00;101681.03;5014161;28;20026;-69
2022/12/31 03:27:26;;;;;;;8.95;8.55;;;;;;;0.71;100.00;101682.28;5011312;28;20060;-69
2022/12/31 03:29:51;;;;;;;9.70;9.20;;;;;;;0.76;100.00;101687.25;5014031;28;20041;-70
2022/12/31 03:32:17;;;;;;;8.98;8.57;;;;;;;0.71;100.00;101690.13;5014477;28;20036;-69
2022/12/31 03:34:42;;;;;;;9.23;8.82;;;;;;;0.58;100.00;101691.69;5013266;28;20037;-69
2022/12/31 03:37:08;;;;;;;8.80;8.40;;;;;;;0.50;100.00;101693.88;5012888;28;20033;-69
2022/12/31 03:39:33;;;;;;;9.20;8.80;;;;;;;0.44;100.00;101691.56;5013632;28;20036;-68
2022/12/31 03:41:59;;;;;;;10.02;9.52;;;;;;;0.51;100.00;101691.19;5011770;28;20037;-68
2022/12/31 03:44:24;;;;;;;9.30;8.90;;;;;;;0.50;100.00;101694.72;5013144;28;20026;-68
2022/12/31 03:46:49;;;;;;;9.85;9.35;;;;;;;0.53;100.00;101697.19;5014822;28;20503;-69
2022/12/31 03:49:15;;;;;;;9.23;8.82;;;;;;;0.77;100.00;101707.22;5013866;28;20114;-69
2022/12/31 03:51:40;;;;;;;9.30;8.90;;;;;;;0.73;100.00;101701.31;5013953;28;20033;-69
2022/12/31 03:54:06;;;;;;;9.52;9.05;;;;;;;0.78;100.00;101694.06;5013103;28;20139;-70
2022/12/31 03:56:31;;;;;;;8.77;8.38;;;;;;;0.65;100.00;101689.59;5012354;28;20041;-70
2022/12/31 03:58:57;;;;;;;9.90;9.40;;;;;;;0.42;100.00;101694.28;5012230;28;20030;-70
2022/12/31 04:01:23;;;;;;;9.65;9.15;;;;;;;0.35;100.00;101689.47;5013753;28;20100;-68
2022/12/31 04:03:48;;;;;;;9.38;8.90;;;;;;;0.39;100.00;101701.44;5013503;28;20091;-68
2022/12/31 04:06:14;;;;;;;9.52;9.02;;;;;;;0.44;100.00;101696.81;5011164;28;20041;-71
2022/12/31 04:08:39;;;;;;;9.57;9.07;;;;;;;0.45;100.00;101701.13;5012796;28;20037;-69
2022/12/31 04:11:05;;;;;;;9.52;9.02;;;;;;;0.49;100.00;101703.47;5012710;28;20460;-69
2022/12/31 04:13:30;;;;;;;9.43;8.93;;;;;;;0.35;100.00;101699.91;5013390;28;20033;-70
2022/12/31 04:15:56;;;;;;;9.13;8.73;;;;;;;0.48;100.00;101701.78;5013327;28;20036;-69
2022/12/31 04:18:21;;;;;;;9.93;9.43;;;;;;;0.48;100.00;101700.94;5014420;28;20096;-71
2022/12/31 04:20:47;;;;;;;9.10;8.70;;;;;;;0.54;100.00;101701.47;5011030;28;20052;-68
2022/12/31 04:23:13;;;;;;;8.93;8.52;;;;;;;0.33;100.00;101697.38;5011936;28;20046;-69
2022/12/31 04:25:38;;;;;;;9.32;8.93;;;;;;;0.42;100.00;101704.72;5013115;28;20026;-69
2022/12/31 04:28:04;;;;;;;9.50;9.00;;;;;;;0.37;100.00;101698.91;5012057;28;20053;-69
2022/12/31 04:30:29;;;;;;;9.32;8.93;;;;;;;0.49;100.00;101705.25;5013069;28;20026;-69
2022/12/31 04:32:55;;;;;;;8.90;8.50;;;;;;;0.47;100.00;101709.72;5012089;28;20093;-69
2022/12/31 04:35:20;;;;;;;9.32;8.88;;;;;;;0.37;100.00;101695.44;5014051;28;20018;-69
2022/12/31 04:37:46;;;;;;;9.27;8.88;;;;;;;0.40;100.00;101714.41;5010650;28;20108;-70
2022/12/31 04:40:11;;;;;;;9.45;8.95;;;;;;;0.35;100.00;101712.94;5011906;28;20026;-69
2022/12/31 04:42:37;;;;;;;9.40;8.90;;;;;;;0.51;100.00;101727.75;5012195;28;20079;-69
2022/12/31 04:45:04;;;;;;;9.23;8.82;;;;;;;0.33;100.00;101727.84;5012112;28;20026;-69
2022/12/31 04:47:29;;;;;;;9.07;8.68;;;;;;;0.31;100.00;101725.34;5008571;28;20058;-68
2022/12/31 04:49:55;;;;;;;9.40;9.00;;;;;;;0.39;100.00;101737.97;5011736;28;20068;-69
2022/12/31 04:52:20;;;;;;;9.75;9.25;;;;;;;0.39;100.00;101736.22;5014565;28;20022;-70
2022/12/31 04:54:46;;;;;;;9.60;9.10;;;;;;;0.36;100.00;101743.34;5012491;28;20033;-68
2022/12/31 04:57:11;;;;;;;9.00;8.60;;;;;;;0.39;100.00;101740.59;5012498;28;20037;-68
2022/12/31 04:59:37;;;;;;;9.88;9.38;;;;;;;0.49;100.00;101731.34;5012285;28;20389;-70
2022/12/31 05:02:02;;;;;;;9.10;8.70;;;;;;;0.57;100.00;101736.16;5010138;28;20486;-68
2022/12/31 05:04:28;;;;;;;9.10;8.70;;;;;;;0.41;100.00;101744.81;5010006;28;20042;-69
2022/12/31 05:06:53;;;;;;;9.00;8.60;;;;;;;0.43;100.00;101739.50;5011425;28;20029;-68
2022/12/31 05:09:19;;;;;;;9.05;8.65;;;;;;;0.44;100.00;101741.19;5012085;28;20037;-70
2022/12/31 05:11:45;;;;;;;10.05;9.55;;;;;;;0.58;100.00;101735.25;5010032;28;20091;-69
2022/12/31 05:14:10;;;;;;;9.13;8.73;;;;;;;0.60;100.00;101736.03;5012735;28;20030;-68
2022/12/31 05:16:36;;;;;;;10.05;9.52;;;;;;;0.50;100.00;101735.63;5008677;28;20022;-69
2022/12/31 05:19:05;;;;;;;9.77;9.27;;;;;;;0.53;100.00;101733.72;5010113;28;20017;-68
2022/12/31 05:21:30;;;;;;;9.43;9.02;;;;;;;0.48;100.00;101729.66;5010787;28;20073;-68
2022/12/31 05:23:56;;;;;;;9.27;8.88;;;;;;;0.44;100.00;101733.34;5010907;28;20468;-68
2022/12/31 05:26:21;;;;;;;8.90;8.50;;;;;;;0.46;100.00;101731.53;5014412;28;20461;-68
2022/12/31 05:28:46;;;;;;;10.38;9.77;;;;;;;0.55;100.00;101741.47;5009546;28;20561;-68
2022/12/31 05:31:12;;;;;;;9.20;8.80;;;;;;;0.55;100.00;101746.69;5012302;28;20029;-69
2022/12/31 05:33:38;;;;;;;9.75;9.25;;;;;;;0.54;100.00;101745.00;5010628;28;20033;-68
2022/12/31 05:36:03;;;;;;;9.63;9.13;;;;;;;0.57;100.00;101750.06;5010021;28;20034;-68
2022/12/31 05:38:29;;;;;;;8.68;8.27;;;;;;;0.51;100.00;101756.47;5009914;28;20018;-69
2022/12/31 05:41:12;;;;;;;9.73;9.23;;;;;;;0.53;100.00;101761.59;5011703;28;20037;-69
2022/12/31 05:43:38;;;;;;;9.60;9.10;;;;;;;0.51;100.00;101758.22;5012461;28;20022;-69
2022/12/31 05:46:04;;;;;;;9.88;9.38;;;;;;;0.53;100.00;101761.59;5011853;28;20044;-69
2022/12/31 05:48:30;;;;;;;9.57;9.07;;;;;;;0.43;100.00;101748.16;5012544;28;20127;-69
2022/12/31 05:50:56;;;;;;;9.82;9.32;;;;;;;0.55;100.00;101764.97;5011381;28;20669;-69
2022/12/31 05:53:21;;;;;;;9.80;9.30;;;;;;;0.45;100.00;101764.63;5008598;28;20043;-69
2022/12/31 05:55:47;;;;;;;9.65;9.15;;;;;;;0.69;100.00;101769.47;5009574;28;20489;-70
2022/12/31 05:58:14;;;;;;;9.20;8.80;;;;;;;0.53;100.00;101764.22;5011665;28;20469;-68
2022/12/31 06:00:40;;;;;;;9.05;8.65;;;;;;;0.51;100.00;101755.59;5014092;28;20026;-69
2022/12/31 06:03:06;;;;;;;9.13;8.73;;;;;;;0.61;100.00;101750.75;5008741;28;20036;-67
2022/12/31 06:05:31;;;;;;;9.00;8.60;;;;;;;0.69;100.00;101762.47;5009881;28;20060;-66
2022/12/31 06:07:57;;;;;;;9.05;8.65;;;;;;;0.71;100.00;101776.28;5009943;28;20109;-68
2022/12/31 06:10:22;;;;;;;9.20;8.80;;;;;;;0.73;100.00;101773.59;5009971;28;20034;-67
2022/12/31 06:12:48;;;;;;;9.38;8.88;;;;;;;0.82;100.00;101773.97;5010452;28;20107;-69
2022/12/31 06:15:13;;;;;;;9.43;8.93;;;;;;;1.26;100.00;101770.72;5011252;28;20026;-68
2022/12/31 06:17:38;;;;;;;9.68;9.18;;;;;;;1.12;100.00;101773.25;5012190;28;20018;-68
2022/12/31 06:20:05;;;;;;;8.45;8.05;;;;;;;1.24;100.00;101777.78;5012936;28;20113;-67
2022/12/31 06:22:30;;;;;;;8.60;8.20;;;;;;;1.29;100.00;101767.94;5012061;28;20451;-69
2022/12/31 06:24:55;;;;;;;9.20;8.80;;;;;;;1.25;100.00;101782.13;5012648;28;20018;-69
2022/12/31 06:27:21;;;;;;;9.77;9.27;;;;;;;1.43;100.00;101782.03;5008881;28;20485;-67
2022/12/31 06:29:46;;;;;;;9.32;8.82;;;;;;;1.71;100.00;101784.78;5014178;28;20414;-69
2022/12/31 06:32:12;;;;;;;8.60;8.20;;;;;;;1.82;100.00;101781.53;5013667;28;20048;-68
2022/12/31 06:34:37;;;;;;;8.48;8.07;;;;;;;2.32;100.00;101802.19;5016061;28;20495;-69
2022/12/31 06:37:03;;;;;;;8.90;8.50;;;;;;;2.67;100.00;101801.88;5013456;28;20022;-68
2022/12/31 06:39:28;;;;;;;8.88;8.48;;;;;;;3.96;100.00;101811.16;5013694;28;20026;-68
2022/12/31 06:41:54;;;;;;;9.38;8.88;;;;;;;4.81;100.00;101812.44;5014656;28;20025;-68
2022/12/31 06:44:21;;;;;;;8.88;8.48;;;;;;;5.21;100.00;101800.00;5012957;28;20488;-69
2022/12/31 06:46:47;;;;;;;9.07;8.68;;;;;;;5.47;100.00;101786.75;5017008;28;20598;-68
2022/12/31 06:49:13;;;;;;;8.80;8.40;;;;;;;7.90;100.00;101779.31;5014389;28;20398;-69
2022/12/31 06:51:38;;;;;;;8.95;8.55;;;;;;;8.34;100.00;101773.94;5014989;28;20025;-68
2022/12/31 06:54:06;;;;;;;8.80;8.40;;;;;;;8.34;100.00;101769.50;5013162;28;20037;-68
2022/12/31 06:56:32;;;;;;;9.00;8.60;;;;;;;9.74;100.00;101768.75;5012535;28;20414;-71
2022/12/31 06:58:58;;;;;;;8.93;8.52;;;;;;;10.47;100.00;101784.06;5014232;28;20018;-68
2022/12/31 07:01:48;;;;;;;9.30;8.90;;;;;;;11.47;100.00;101775.38;5011918;28;20029;-71
2022/12/31 07:04:16;;;;;;;9.00;8.60;;;;;;;12.63;100.00;101784.16;5007850;28;20137;-70
2022/12/31 07:07:08;;;;;;;9.13;8.73;;;;;;;12.69;100.00;101786.19;5013928;28;20413;-70
2022/12/31 07:09:44;;;;;;;9.02;8.63;;;;;;;12.53;100.00;101788.78;5011641;28;20473;-70
2022/12/31 07:12:35;;;;;;;8.95;8.55;;;;;;;12.65;100.00;101793.69;5011924;28;20038;-70
2022/12/31 07:15:09;;;;;;;9.57;9.18;;;;;;;12.78;100.00;101789.75;5014135;28;20084;-70
2022/12/31 07:18:05;;;;;;;9.60;9.20;;;;;;;13.37;99.91;101794.22;5011741;28;20112;-71
2022/12/31 07:20:31;;;;;;;9.55;9.15;;;;;;;13.93;95.54;101789.97;5011253;28;20044;-69
2022/12/31 07:22:57;;;;;;;9.80;9.40;;;;;;;13.80;97.06;101790.44;5013751;28;20038;-70
2022/12/31 07:25:23;;;;;;;9.98;9.57;;;;;;;11.89;98.77;101785.44;5012915;28;20043;-70
2022/12/31 07:28:00;;;;;;;10.02;9.63;;;;;;;11.92;100.00;101785.16;5009620;28;20036;-71
2022/12/31 07:30:40;;;;;;;10.50;10.00;;;;;;;10.38;100.00;101789.38;5009622;28;20022;-71
2022/12/31 07:33:12;;;;;;;10.00;9.60;;;;;;;13.68;100.00;101791.78;5012643;28;20113;-71
2022/12/31 07:35:47;;;;;;;9.93;9.52;;;;;;;14.36;94.68;101791.47;5011788;28;20038;-70
2022/12/31 07:38:25;;;;;;;10.20;9.75;;;;;;;14.72;91.46;101796.44;5012486;28;20056;-70
2022/12/31 07:41:05;;;;;;;10.40;9.90;;;;;;;12.15;100.00;101793.50;5011180;28;20026;-72
2022/12/31 07:43:58;;;;;;;10.43;9.93;;;;;;;13.84;100.00;101793.63;5023663;28;20034;-74
2022/12/31 07:46:23;;;;;;;10.90;10.40;;;;;;;12.90;100.00;101793.81;4999576;28;20037;-71
2022/12/31 07:48:49;;;;;;;10.70;10.20;;;;;;;13.46;100.00;101798.56;5011089;28;20029;-71
2022/12/31 07:51:15;;;;;;;10.48;9.98;;;;;;;11.37;100.00;101793.19;5009591;28;20481;-72
2022/12/31 07:53:40;;;;;;;10.50;10.00;;;;;;;10.83;100.00;101783.41;5009470;28;20026;-73
2022/12/31 07:56:08;;;;;;;10.60;10.10;;;;;;;10.19;100.00;101788.38;5006350;28;20050;-73
2022/12/31 07:58:39;;;;;;;10.48;9.98;;;;;;;11.01;100.00;101790.44;5028424;28;20552;-72
2022/12/31 08:01:11;;;;;;;10.30;9.80;;;;;;;13.60;100.00;101796.28;5010102;28;20033;-74
2022/12/31 08:03:52;;;;;;;10.48;9.98;;;;;;;14.08;100.00;101803.47;5011385;28;20515;-74
2022/12/31 08:06:41;;;;;;;10.10;9.70;;;;;;;12.21;100.00;101803.53;5007762;28;20113;-74
2022/12/31 08:09:49;;;;;;;10.23;9.80;;;;;;;10.57;100.00;101807.91;5010511;28;20552;-74
2022/12/31 08:12:18;;;;;;;10.90;10.40;;;;;;;13.45;100.00;101796.91;5010474;28;20515;-73
2022/12/31 08:14:46;;;;;;;10.50;10.00;;;;;;;13.79;100.00;101809.28;5012993;28;20286;-73
2022/12/31 08:17:16;;;;;;;10.85;10.35;;;;;;;15.35;95.40;101813.41;5015983;28;20041;-73
2022/12/31 08:19:44;;;;;;;10.77;10.27;;;;;;;15.28;98.02;101810.63;5011856;28;20029;-73
2022/12/31 08:22:31;;;;;;;10.68;10.18;;;;;;;13.37;97.97;101812.88;5012996;28;20057;-74
2022/12/31 08:25:22;;;;;;;10.40;9.90;;;;;;;9.78;100.00;101807.25;5011252;28;20042;-73
2022/12/31 08:28:21;;;;;;;10.70;10.20;;;;;;;8.21;100.00;101790.81;5011105;28;20021;-73
2022/12/31 08:31:02;;;;;;;10.50;10.00;;;;;;;12.95;100.00;101795.00;5009345;28;20477;-73
2022/12/31 08:33:32;;;;;;;11.30;10.80;;;;;;;8.69;100.00;101797.44;5022070;28;20026;-71
2022/12/31 08:36:34;;;;;;;10.57;10.10;;;;;;;10.29;100.00;101800.84;5011366;28;20030;-71
2022/12/31 08:39:05;;;;;;;10.55;10.05;;;;;;;10.63;100.00;101804.69;5010994;28;20030;-71
2022/12/31 08:41:46;;;;;;;9.93;9.52;;;;;;;11.31;100.00;101783.16;5010730;28;20109;-71
2022/12/31 08:44:17;;;;;;;10.05;9.65;;;;;;;15.09;100.00;101785.13;5007325;28;20026;-72
2022/12/31 08:46:43;;;;;;;10.50;10.00;;;;;;;13.69;100.00;101789.94;5007823;28;20108;-71
2022/12/31 08:49:09;;;;;;;10.00;9.60;;;;;;;13.18;100.00;101786.44;5011295;28;20037;-71
2022/12/31 08:51:35;;;;;;;10.77;10.27;;;;;;;12.20;100.00;101777.06;5007927;28;20033;-73
2022/12/31 08:54:01;;;;;;;10.50;10.00;;;;;;;12.64;100.00;101751.25;5036751;28;20041;-73
2022/12/31 08:56:31;;;;;;;9.90;9.50;;;;;;;16.01;100.00;101751.34;5008524;28;20409;-69
2022/12/31 08:59:18;;;;;;;10.43;9.93;;;;;;;15.85;93.66;101751.44;5009659;28;20022;-69
2022/12/31 09:01:53;;;;;;;10.30;9.80;;;;;;;15.30;98.51;101746.28;5007990;28;20026;-72
2022/12/31 09:04:47;;;;;;;;;;;;;;;16.23;94.10;101762.16;5025840;28;20640;-75
2022/12/31 09:07:17;;;;;;;9.82;9.43;;;;;;;16.63;91.51;101757.41;4990829;28;19918;-71
2022/12/31 09:10:01;;;;;;;10.27;9.85;;;;;;;16.34;90.03;101761.72;5008573;28;20042;-71
2022/12/31 09:13:02;;;;;;;10.68;10.18;;;;;;;12.53;100.00;101743.53;5007146;28;20532;-71
2022/12/31 09:15:41;;;;;;;10.43;9.93;;;;;;;12.34;100.00;101748.09;4968920;28;20410;-71
2022/12/31 09:18:08;;;;;;;11.00;10.50;;;;;;;11.50;100.00;101748.50;5001325;28;20030;-70
2022/12/31 09:20:35;;;;;;;10.88;10.38;;;;;;;10.90;100.00;101744.66;5009865;28;20025;-71
2022/12/31 09:23:01;;;;;;;10.40;9.90;;;;;;;9.64;100.00;101739.59;5010131;28;20026;-71
2022/12/31 09:25:28;;;;;;;10.82;10.32;;;;;;;10.15;100.00;101738.44;5010276;28;20025;-71
2022/12/31 09:28:15;;;;;;;11.10;10.60;;;;;;;11.94;100.00;101740.63;5004067;28;20028;-71
2022/12/31 09:30:56;;;;;;;10.65;10.15;;;;;;;10.08;100.00;101738.19;5008429;28;20025;-71
2022/12/31 09:33:51;;;;;;;10.40;9.90;;;;;;;8.77;100.00;101736.75;5011461;28;20036;-71
2022/12/31 09:36:35;;;;;;;10.82;10.32;;;;;;;9.03;100.00;101726.50;5009923;28;20061;-71
2022/12/31 09:39:20;;;;;;;11.13;10.63;;;;;;;7.27;100.00;101724.66;5008620;28;20492;-70
2022/12/31 09:41:45;;;;;;;10.40;9.90;;;;;;;9.41;100.00;101723.13;5009844;28;20033;-70
2022/12/31 09:44:11;;;;;;;10.80;10.30;;;;;;;7.64;100.00;101714.63;5008874;28;20389;-71
2022/12/31 09:47:03;;;;;;;11.00;10.50;;;;;;;7.43;100.00;101712.75;5011548;28;20029;-71
2022/12/31 09:49:28;;;;;;;11.20;10.65;;;;;;;9.91;100.00;101720.31;5011711;28;20034;-71
2022/12/31 09:52:00;;;;;;;10.50;10.00;;;;;;;9.36;100.00;101720.06;5007292;28;20109;-70
2022/12/31 09:54:34;;;;;;;11.30;10.70;;;;;;;8.10;100.00;101708.13;5012249;28;20515;-71
2022/12/31 09:57:09;;;;;;;10.55;10.05;;;;;;;8.79;100.00;101708.34;5014220;28;20119;-70
2022/12/31 10:00:04;;;;;;;10.63;10.13;;;;;;;9.41;100.00;101715.19;5012690;28;20030;-72
2022/12/31 10:02:51;;;;;;;10.18;9.68;;;;;;;9.54;100.00;101714.91;5015680;28;20033;-71
2022/12/31 10:05:37;;;;;;;10.27;9.77;;;;;;;9.36;100.00;101706.81;5013286;28;20029;-71
2022/12/31 10:09:00;;;;;;;10.65;10.15;;;;;;;8.72;100.00;101708.03;5003090;28;20058;-72
2022/12/31 10:11:48;;;;;;;10.13;9.63;;;;;;;8.19;100.00;101709.97;4966088;28;20041;-70
2022/12/31 10:14:32;;;;;;;10.45;9.95;;;;;;;8.10;100.00;101722.19;5013556;28;20489;-71
2022/12/31 10:17:09;;;;;;;10.32;9.82;;;;;;;8.10;100.00;101714.25;5014161;28;20037;-72
2022/12/31 10:19:46;;;;;;;10.10;9.60;;;;;;;8.31;100.00;101714.25;5013253;28;20106;-71
2022/12/31 10:22:36;;;;;;;11.57;10.98;;;;;;;8.79;100.00;101705.69;5011809;28;20112;-71
2022/12/31 10:25:01;;;;;;;11.02;10.43;;;;;;;8.37;100.00;101710.25;5013897;28;20030;-71
2022/12/31 10:27:36;;;;;;;11.65;11.05;;;;;;;8.45;100.00;101711.28;5029925;28;20025;-71
2022/12/31 10:30:12;;;;;;;10.52;10.02;;;;;;;8.71;100.00;101703.72;5014583;28;20505;-71
2022/12/31 10:33:07;;;;;;;10.25;9.75;;;;;;;9.32;100.00;101713.34;5011690;28;20128;-71
2022/12/31 10:36:20;;;;;;;10.00;9.50;;;;;;;8.75;100.00;101710.44;5013264;28;20112;-72
2022/12/31 10:38:54;;;;;;;10.07;9.57;;;;;;;8.23;100.00;101714.91;5001450;28;20060;-71
2022/12/31 10:41:25;;;;;;;11.03;10.43;;;;;;;7.83;100.00;101712.09;5006524;28;20026;-70
2022/12/31 10:44:33;;;;;;;10.82;10.27;;;;;;;8.58;100.00;101705.75;5028222;28;20025;-70
2022/12/31 10:47:24;;;;;;;10.60;10.10;;;;;;;8.46;100.00;101698.91;5012525;28;20040;-71
2022/12/31 10:50:05;;;;;;;11.35;10.75;;;;;;;8.13;100.00;101697.28;5015148;28;20100;-71
2022/12/31 10:52:54;;;;;;;11.25;10.65;;;;;;;8.91;100.00;101685.28;5014524;28;20021;-71
2022/12/31 10:55:57;;;;;;;9.50;9.10;;;;;;;8.47;100.00;101682.06;5011841;28;20486;-71
2022/12/31 10:58:44;;;;;;;10.20;9.70;;;;;;;8.49;100.00;101675.66;5005010;28;20085;-71
2022/12/31 11:01:23;;;;;;;10.00;9.50;;;;;;;8.65;100.00;101667.22;5011311;28;20064;-71
2022/12/31 11:04:13;;;;;;;10.43;9.93;;;;;;;8.71;100.00;101660.56;5027692;28;20115;-71
2022/12/31 11:06:47;;;;;;;10.82;10.23;;;;;;;8.74;100.00;101660.28;5011024;28;20029;-71
2022/12/31 11:09:18;;;;;;;;;;;;;;;9.01;100.00;101664.94;5014571;28;20026;-71
2022/12/31 11:12:03;;;;;;;10.90;10.30;;;;;;;9.25;100.00;101667.19;5010418;28;19913;-70
2022/12/31 11:14:56;;;;;;;10.07;9.57;;;;;;;8.94;100.00;101661.19;5014101;28;20099;-70
2022/12/31 11:17:43;;;;;;;10.02;9.52;;;;;;;9.01;100.00;101668.44;5009053;28;20022;-72
2022/12/31 11:20:43;;;;;;;10.40;9.90;;;;;;;9.33;100.00;101657.63;5012064;28;20045;-71
2022/12/31 11:23:30;;;;;;;10.10;9.60;;;;;;;9.07;100.00;101646.72;5012258;28;20045;-71
2022/12/31 11:26:20;;;;;;;10.00;9.50;;;;;;;9.44;100.00;101646.03;5013604;28;20397;-70
2022/12/31 11:29:01;;;;;;;11.57;10.95;;;;;;;9.66;100.00;101645.75;5011125;28;20033;-73
2022/12/31 11:31:37;;;;;;;10.23;9.73;;;;;;;9.73;100.00;101632.75;5027187;28;20025;-73
2022/12/31 11:34:41;;;;;;;9.82;9.32;;;;;;;10.04;100.00;101640.50;5012471;28;20029;-74
2022/12/31 11:37:16;;;;;;;9.90;9.40;;;;;;;9.57;100.00;101648.41;5013550;28;20071;-74
2022/12/31 11:40:00;;;;;;;;;;;;;;;9.15;100.00;101643.38;5023790;28;20125;-72
2022/12/31 11:42:59;;;;;;;10.10;9.60;;;;;;;9.11;100.00;101649.94;5012007;28;19925;-74
2022/12/31 11:45:56;;;;;;;10.85;10.25;;;;;;;9.65;100.00;101651.19;4996671;28;20409;-73
2022/12/31 11:48:40;;;;;;;9.98;9.48;;;;;;;9.45;100.00;101653.00;5012419;28;20032;-72
2022/12/31 11:51:39;;;;;;;9.50;9.10;;;;;;;9.88;100.00;101657.00;5012797;28;20033;-73
2022/12/31 11:54:38;;;;;;;9.45;9.05;;;;;;;9.71;100.00;101655.94;5013448;28;20030;-73
2022/12/31 11:57:16;;;;;;;10.02;9.52;;;;;;;9.75;100.00;101659.94;5009957;28;20049;-73
2022/12/31 11:59:42;;;;;;;10.18;9.68;;;;;;;9.84;100.00;101651.16;5012157;28;20104;-73
2022/12/31 12:02:23;;;;;;;10.38;9.88;;;;;;;9.34;100.00;101664.59;5027423;28;20129;-73